Thunder radar more information blitzortung!


Löydät sääaseman tiedot myös:

European Weather Network

Finland Weather Exchange

Weather Underground

AWEKAS



Weather Underground säähistoriasivu

Päivittäin yhteenveto Tammikuu 28, 2017 Yksiköt:  Molemmat    Englantilaiset   Metriset
« Edellinen Päivä
Seuraava Päivä »
Päivittäin Viikoittain Kuukausittain Vuosittain Mukautettu
  Korkea: Matala: Keskiarvo:
Lämpötila: TemperatureC °F /  -17.8 °C -0.3 °F /  -17.9 °C 0.9 °F /  -17.3 °C
Kastepiste: DewpointC °F /  -17.8 °C -1.3 °F /  -18.5 °C -0.6 °F /  -18.1 °C
Kosteus: Humidity % 76 % 89 %
Tuulen nopeus: WindSpeedKMH mph /  0 km/h - 0 mph /  0 km/h
Tuulenpuuska: WindSpeedGustKMH mph /  0 km/h - -
Tuuli:- - North
Ilmanpaine: PressurehPa in /  0 hPa 1015.8 in /  34395 hPa -
Sade: 0.0 in /  0 mm    
Historical Graphs
 
 
Taulukkotiedot Tammikuu 28, 2017
Aika Lämpötila Kastepiste Ilmanpaine Tuuli Tuulen nopeus Tuulenpuuska Kosteus Sademäärä (tunneittain)
TemperatureC °F /  -17.8 °C DewpointC °F /  -17.8 °C PressurehPa in /  0 hPa Calm     Humidity % HourlyPrecipMM in /  0 mm
00:00 1.7 °F /  -16.8 °C -0.7 °F /  -18.2 °C 1016.8 in /  34428.8 hPa Calm     84 % 0.0 in /  0 mm
00:15 1.6 °F /  -16.9 °C -0.9 °F /  -18.3 °C 1016.8 in /  34428.8 hPa Calm     84 % 0.0 in /  0 mm
00:30 1.6 °F /  -16.9 °C -1.0 °F /  -18.3 °C 1016.8 in /  34428.8 hPa Calm     83 % 0.0 in /  0 mm
01:00 1.4 °F /  -17 °C -1.2 °F /  -18.4 °C 1016.8 in /  34428.8 hPa Calm     83 % 0.0 in /  0 mm
01:15 1.7 °F /  -16.8 °C -1.2 °F /  -18.4 °C 1016.5 in /  34418.7 hPa Calm     81 % 0.0 in /  0 mm
01:30 2.0 °F /  -16.7 °C -1.3 °F /  -18.5 °C 1016.5 in /  34418.7 hPa Calm     79 % 0.0 in /  0 mm
02:00 2.4 °F /  -16.4 °C -1.2 °F /  -18.4 °C 1016.5 in /  34418.7 hPa Calm     77 % 0.0 in /  0 mm
02:15 2.6 °F /  -16.3 °C -1.3 °F /  -18.5 °C 1016.5 in /  34418.7 hPa Calm     76 % 0.0 in /  0 mm
02:30 2.6 °F /  -16.3 °C -1.1 °F /  -18.4 °C 1016.5 in /  34418.7 hPa Calm     77 % 0.0 in /  0 mm
02:45 2.7 °F /  -16.3 °C -0.9 °F /  -18.3 °C 1016.5 in /  34418.7 hPa Calm     77 % 0.0 in /  0 mm
03:00 2.8 °F /  -16.2 °C -0.8 °F /  -18.2 °C 1016.5 in /  34418.7 hPa Calm     77 % 0.0 in /  0 mm
03:15 2.8 °F /  -16.2 °C -0.6 °F /  -18.1 °C 1016.1 in /  34405.1 hPa Calm     78 % 0.0 in /  0 mm
03:30 2.8 °F /  -16.2 °C -0.7 °F /  -18.2 °C 1016.1 in /  34405.1 hPa Calm     78 % 0.0 in /  0 mm
03:45 2.7 °F /  -16.3 °C -0.6 °F /  -18.1 °C 1016.1 in /  34405.1 hPa Calm     79 % 0.0 in /  0 mm
04:00 2.7 °F /  -16.3 °C -0.6 °F /  -18.1 °C 1015.8 in /  34395 hPa Calm     79 % 0.0 in /  0 mm
04:15 2.7 °F /  -16.3 °C -0.6 °F /  -18.1 °C 1016.1 in /  34405.1 hPa Calm     79 % 0.0 in /  0 mm
04:30 2.6 °F /  -16.3 °C -0.7 °F /  -18.2 °C 1016.1 in /  34405.1 hPa Calm     79 % 0.0 in /  0 mm
04:45 2.6 °F /  -16.3 °C -0.5 °F /  -18.1 °C 1015.8 in /  34395 hPa Calm     80 % 0.0 in /  0 mm
05:00 2.4 °F /  -16.4 °C -0.5 °F /  -18.1 °C 1015.8 in /  34395 hPa Calm     81 % 0.0 in /  0 mm
05:30 2.2 °F /  -16.6 °C 0.1 °F /  -17.7 °C 1016.1 in /  34405.1 hPa Calm     86 % 0.0 in /  0 mm
05:45 2.1 °F /  -16.6 °C 0.1 °F /  -17.7 °C 1015.8 in /  34395 hPa Calm     87 % 0.0 in /  0 mm
06:00 1.9 °F /  -16.7 °C 0.1 °F /  -17.7 °C 1015.8 in /  34395 hPa Calm     88 % 0.0 in /  0 mm
06:15 1.7 °F /  -16.8 °C 0.1 °F /  -17.7 °C 1015.8 in /  34395 hPa Calm     89 % 0.0 in /  0 mm
06:30 1.5 °F /  -16.9 °C 0.0 °F /  -17.8 °C 1015.8 in /  34395 hPa Calm     90 % 0.0 in /  0 mm
06:45 1.3 °F /  -17.1 °C 0.0 °F /  -17.8 °C 1015.8 in /  34395 hPa Calm     91 % 0.0 in /  0 mm
07:00 1.1 °F /  -17.2 °C -0.2 °F /  -17.9 °C 1015.8 in /  34395 hPa Calm     91 % 0.0 in /  0 mm
07:15 1.0 °F /  -17.2 °C -0.2 °F /  -17.9 °C 1015.8 in /  34395 hPa Calm     92 % 0.0 in /  0 mm
07:30 0.9 °F /  -17.3 °C -0.2 °F /  -17.9 °C 1016.1 in /  34405.1 hPa Calm     92 % 0.0 in /  0 mm
07:45 0.8 °F /  -17.3 °C -0.4 °F /  -18 °C 1016.1 in /  34405.1 hPa Calm     92 % 0.0 in /  0 mm
08:00 0.6 °F /  -17.4 °C -0.4 °F /  -18 °C 1016.1 in /  34405.1 hPa Calm     93 % 0.0 in /  0 mm
08:15 0.4 °F /  -17.6 °C -0.6 °F /  -18.1 °C 1016.1 in /  34405.1 hPa Calm     93 % 0.0 in /  0 mm
08:30 0.3 °F /  -17.6 °C -0.7 °F /  -18.2 °C 1016.5 in /  34418.7 hPa Calm     93 % 0.0 in /  0 mm
08:45 0.2 °F /  -17.7 °C -0.6 °F /  -18.1 °C 1016.1 in /  34405.1 hPa Calm     94 % 0.0 in /  0 mm
09:00 0.2 °F /  -17.7 °C -0.7 °F /  -18.2 °C 1016.1 in /  34405.1 hPa Calm     94 % 0.0 in /  0 mm
09:15 0.1 °F /  -17.7 °C -0.8 °F /  -18.2 °C 1016.1 in /  34405.1 hPa Calm     94 % 0.0 in /  0 mm
09:30 0.1 °F /  -17.7 °C -0.8 °F /  -18.2 °C 1016.5 in /  34418.7 hPa Calm     94 % 0.0 in /  0 mm
09:45 0.2 °F /  -17.7 °C -0.7 °F /  -18.2 °C 1016.5 in /  34418.7 hPa Calm     94 % 0.0 in /  0 mm
10:00 0.2 °F /  -17.7 °C -0.5 °F /  -18.1 °C 1016.5 in /  34418.7 hPa Calm     95 % 0.0 in /  0 mm
10:15 0.3 °F /  -17.6 °C -0.4 °F /  -18 °C 1016.5 in /  34418.7 hPa Calm     95 % 0.0 in /  0 mm
10:30 0.4 °F /  -17.6 °C -0.3 °F /  -17.9 °C 1016.8 in /  34428.8 hPa Calm     95 % 0.0 in /  0 mm
10:45 0.5 °F /  -17.5 °C -0.4 °F /  -18 °C 1016.8 in /  34428.8 hPa Calm     94 % 0.0 in /  0 mm
11:00 0.6 °F /  -17.4 °C -0.3 °F /  -17.9 °C 1016.8 in /  34428.8 hPa Calm     94 % 0.0 in /  0 mm
11:15 0.7 °F /  -17.4 °C -0.2 °F /  -17.9 °C 1016.8 in /  34428.8 hPa Calm     94 % 0.0 in /  0 mm
11:30 0.7 °F /  -17.4 °C -0.1 °F /  -17.8 °C 1017.2 in /  34442.4 hPa Calm     94 % 0.0 in /  0 mm
11:45 0.8 °F /  -17.3 °C -0.1 °F /  -17.8 °C 1016.8 in /  34428.8 hPa Calm     94 % 0.0 in /  0 mm
12:00 0.8 °F /  -17.3 °C -0.1 °F /  -17.8 °C 1017.2 in /  34442.4 hPa Calm     94 % 0.0 in /  0 mm
12:15 0.8 °F /  -17.3 °C -0.1 °F /  -17.8 °C 1017.2 in /  34442.4 hPa Calm     94 % 0.0 in /  0 mm
12:30 0.8 °F /  -17.3 °C -0.1 °F /  -17.8 °C 1017.2 in /  34442.4 hPa Calm     94 % 0.0 in /  0 mm
12:45 0.8 °F /  -17.3 °C 0.0 °F /  -17.8 °C 1017.2 in /  34442.4 hPa Calm     94 % 0.0 in /  0 mm
13:00 0.9 °F /  -17.3 °C 0.0 °F /  -17.8 °C 1016.8 in /  34428.8 hPa Calm     94 % 0.0 in /  0 mm
13:15 1.1 °F /  -17.2 °C 0.1 °F /  -17.7 °C 1016.8 in /  34428.8 hPa Calm     93 % 0.0 in /  0 mm
13:30 1.2 °F /  -17.1 °C 0.2 °F /  -17.7 °C 1016.8 in /  34428.8 hPa Calm     93 % 0.0 in /  0 mm
13:45 1.3 °F /  -17.1 °C 0.3 °F /  -17.6 °C 1016.8 in /  34428.8 hPa Calm     93 % 0.0 in /  0 mm
14:00 1.3 °F /  -17.1 °C 0.2 °F /  -17.7 °C 1016.8 in /  34428.8 hPa Calm     92 % 0.0 in /  0 mm
14:15 1.4 °F /  -17 °C 0.2 °F /  -17.7 °C 1016.8 in /  34428.8 hPa Calm     92 % 0.0 in /  0 mm
14:30 1.4 °F /  -17 °C 0.2 °F /  -17.7 °C 1016.8 in /  34428.8 hPa Calm     92 % 0.0 in /  0 mm
14:45 1.4 °F /  -17 °C 0.3 °F /  -17.6 °C 1016.8 in /  34428.8 hPa Calm     92 % 0.0 in /  0 mm
15:00 1.4 °F /  -17 °C 0.2 °F /  -17.7 °C 1016.8 in /  34428.8 hPa Calm     92 % 0.0 in /  0 mm
15:15 1.4 °F /  -17 °C 0.2 °F /  -17.7 °C 1016.8 in /  34428.8 hPa Calm     92 % 0.0 in /  0 mm
15:30 1.3 °F /  -17.1 °C 0.0 °F /  -17.8 °C 1016.8 in /  34428.8 hPa Calm     91 % 0.0 in /  0 mm
15:45 1.2 °F /  -17.1 °C -0.1 °F /  -17.8 °C 1016.8 in /  34428.8 hPa Calm     91 % 0.0 in /  0 mm
16:00 1.1 °F /  -17.2 °C -0.2 °F /  -17.9 °C 1016.8 in /  34428.8 hPa Calm     91 % 0.0 in /  0 mm
16:15 0.9 °F /  -17.3 °C -0.4 °F /  -18 °C 1016.8 in /  34428.8 hPa Calm     91 % 0.0 in /  0 mm
16:30 0.8 °F /  -17.3 °C -0.5 °F /  -18.1 °C 1016.8 in /  34428.8 hPa Calm     91 % 0.0 in /  0 mm
16:45 0.6 °F /  -17.4 °C -0.7 °F /  -18.2 °C 1016.8 in /  34428.8 hPa Calm     91 % 0.0 in /  0 mm
17:00 0.3 °F /  -17.6 °C -1.0 °F /  -18.3 °C 1017.2 in /  34442.4 hPa Calm     91 % 0.0 in /  0 mm
17:15 0.1 °F /  -17.7 °C -1.2 °F /  -18.4 °C 1017.2 in /  34442.4 hPa Calm     91 % 0.0 in /  0 mm
17:30 0.1 °F /  -17.7 °C -1.1 °F /  -18.4 °C 1017.2 in /  34442.4 hPa Calm     92 % 0.0 in /  0 mm
17:45 0.1 °F /  -17.7 °C -1.2 °F /  -18.4 °C 1017.2 in /  34442.4 hPa Calm     91 % 0.0 in /  0 mm
18:00 0.0 °F /  -17.8 °C -1.3 °F /  -18.5 °C 1017.2 in /  34442.4 hPa Calm     91 % 0.0 in /  0 mm
18:15 0.0 °F /  -17.8 °C -1.3 °F /  -18.5 °C 1017.5 in /  34452.6 hPa Calm     91 % 0.0 in /  0 mm
18:45 0.1 °F /  -17.7 °C -1.2 °F /  -18.4 °C 1017.5 in /  34452.6 hPa Calm     91 % 0.0 in /  0 mm
19:00 0.1 °F /  -17.7 °C -1.2 °F /  -18.4 °C 1017.5 in /  34452.6 hPa Calm     91 % 0.0 in /  0 mm
19:15 0.0 °F /  -17.8 °C -1.1 °F /  -18.4 °C 1017.5 in /  34452.6 hPa Calm     92 % 0.0 in /  0 mm
19:45 0.0 °F /  -17.8 °C -1.1 °F /  -18.4 °C 1017.5 in /  34452.6 hPa Calm     92 % 0.0 in /  0 mm
20:00 -0.1 °F /  -17.8 °C -1.2 °F /  -18.4 °C 1017.5 in /  34452.6 hPa Calm     92 % 0.0 in /  0 mm
20:15 -0.1 °F /  -17.8 °C -1.1 °F /  -18.4 °C 1017.5 in /  34452.6 hPa Calm     93 % 0.0 in /  0 mm
20:30 -0.2 °F /  -17.9 °C -1.2 °F /  -18.4 °C 1017.5 in /  34452.6 hPa Calm     93 % 0.0 in /  0 mm
20:45 -0.2 °F /  -17.9 °C -1.2 °F /  -18.4 °C 1017.5 in /  34452.6 hPa Calm     93 % 0.0 in /  0 mm
21:00 -0.3 °F /  -17.9 °C -1.1 °F /  -18.4 °C 1017.5 in /  34452.6 hPa Calm     94 % 0.0 in /  0 mm
21:15 -0.3 °F /  -17.9 °C -1.2 °F /  -18.4 °C 1017.5 in /  34452.6 hPa Calm     94 % 0.0 in /  0 mm
21:30 -0.3 °F /  -17.9 °C -1.2 °F /  -18.4 °C 1017.5 in /  34452.6 hPa Calm     94 % 0.0 in /  0 mm
21:45 -0.3 °F /  -17.9 °C -1.0 °F /  -18.3 °C 1017.5 in /  34452.6 hPa Calm     95 % 0.0 in /  0 mm
22:00 -0.3 °F /  -17.9 °C -1.0 °F /  -18.3 °C 1017.5 in /  34452.6 hPa Calm     95 % 0.0 in /  0 mm
22:15 -0.3 °F /  -17.9 °C -1.0 °F /  -18.3 °C 1017.5 in /  34452.6 hPa Calm     95 % 0.0 in /  0 mm
22:30 -0.3 °F /  -17.9 °C -1.0 °F /  -18.3 °C 1017.5 in /  34452.6 hPa Calm     95 % 0.0 in /  0 mm
22:45 -0.3 °F /  -17.9 °C -1.0 °F /  -18.3 °C 1017.5 in /  34452.6 hPa Calm     95 % 0.0 in /  0 mm
23:00 -0.3 °F /  -17.9 °C -1.0 °F /  -18.3 °C 1017.5 in /  34452.6 hPa Calm     95 % 0.0 in /  0 mm
23:30 -0.2 °F /  -17.9 °C -0.8 °F /  -18.2 °C 1017.5 in /  34452.6 hPa Calm     96 % 0.0 in /  0 mm
23:45 -0.2 °F /  -17.9 °C -0.8 °F /  -18.2 °C 1017.5 in /  34452.6 hPa Calm     96 % 0.0 in /  0 mm
Esan sääasema
Terveisin Weather Underground - 2.75 mb

Alkuperäinen skripti  Jim McMurry - jmcmurry@mwt.net Sovitettu myös templatelle  Wim van der Kuil - Leuven-Template.eu

Laitteet joita käytämme:

Sääasema
Davis VP2

Sääasemaohjelma
Cumulus

Sääaseman tietokone
Asus EeePC

Palveluntarjoaja
Suncomet

Davis VP2

Cumulus

Asus EeePC

Suncomet